Dades meteomassalio
 
Diari Summary for Agost 14, 2018 Units:  Metric    English   Both
« Previous Day
Next Day »
Diari Semanal Mensual Anual Personalitzat
  Actual: Maxima: Minima: Mijana:
Temperatura: -4.8 °C -17.8 °C -7.3 °C -6.2 °C
Rosada: -10.3 °C -17.8 °C -11.1 °C -10.4 °C
Humitat: 54 % Humidity % 45 % 62 %
Velocitat del vent: 49.2 km/h 0 km/h 11.9 km/h 37.8 km/h
Racha vent: 40.1 km/h 0 km/h - -
Vent:North - - NW
Pressio: 34537.2 hPa 0 hPa 34401.8 hPa -
Pluja: 0 mm      
Historical Graphs
 
 
Tabular Data for Agost 14, 2018
Time Temperature Dew Point Pressure Wind Wind Speed Wind Gust Humidity Rainfall Rate (Hourly) solar Conditions
-17.8 °C -17.8 °C 0 hPa Calm     Humidity % 0 mm SolarRadiationWatts/m^2 W/m2 Conditions
00:04 -3.9 °C -11 °C 34401.8 hPa NNW 33.6 km/h 21.7 km/h 45 % 0 mm 0.00 W/m2 CLR
00:09 -3.9 °C -10.8 °C 34405.1 hPa NW 26.9 km/h 11.4 km/h 46 % 0 mm 0.00 W/m2 CLR
00:14 -4.2 °C -11.1 °C 34408.5 hPa NW 26.9 km/h 14.5 km/h 46 % 0 mm 0.00 W/m2 CLR
00:19 -4.2 °C -10.9 °C 34411.9 hPa NNW 31.1 km/h 23.3 km/h 47 % 0 mm 0.00 W/m2 CLR
00:24 -4.2 °C -10.7 °C 34418.7 hPa NW 29.8 km/h 18.3 km/h 48 % 0 mm 0.00 W/m2 CLR
00:29 -4.2 °C -10.5 °C 34422.1 hPa WNW 38.8 km/h 22 km/h 49 % 0 mm 0.00 W/m2 CLR
00:34 -4.2 °C -10.4 °C 34425.5 hPa NNW 47.6 km/h 36.7 km/h 50 % 0 mm 0.00 W/m2 CLR
00:39 -4.5 °C -10.5 °C 34425.5 hPa NW 29.8 km/h 23 km/h 51 % 0 mm 0.00 W/m2 CLR
00:44 -4.5 °C -10.5 °C 34425.5 hPa NNW 29.8 km/h 19.6 km/h 51 % 0 mm 0.00 W/m2 CLR
00:49 -4.5 °C -10.5 °C 34425.5 hPa NNW 32.8 km/h 24.3 km/h 51 % 0 mm 0.00 W/m2 CLR
00:54 -4.5 °C -10.3 °C 34425.5 hPa WNW 32.8 km/h 22.2 km/h 52 % 0 mm 0.00 W/m2 CLR
00:59 -4.8 °C -10.4 °C 34422.1 hPa WNW 38.8 km/h 26.2 km/h 53 % 0 mm 0.00 W/m2 CLR
01:04 -4.8 °C -10.3 °C 34422.1 hPa NNW 50.7 km/h 40.4 km/h 54 % 0 mm 0.00 W/m2 CLR
01:09 -4.8 °C -10.1 °C 34422.1 hPa NW 53.6 km/h 37.3 km/h 55 % 0 mm 0.00 W/m2 CLR
01:14 -5.1 °C -10.4 °C 34418.7 hPa NNW 44.1 km/h 30.7 km/h 55 % 0 mm 0.00 W/m2 CLR
01:19 -5.1 °C -10.4 °C 34422.1 hPa NW 50.7 km/h 30.7 km/h 55 % 0 mm 0.00 W/m2 CLR
01:24 -5.1 °C -10.2 °C 34418.7 hPa NW 38.8 km/h 30.7 km/h 56 % 0 mm 0.00 W/m2 CLR
01:29 -5.4 °C -10.6 °C 34422.1 hPa NW 35.7 km/h 26.7 km/h 56 % 0 mm 0.00 W/m2 CLR
01:34 -5.4 °C -10.6 °C 34425.5 hPa NW 35.7 km/h 28.5 km/h 56 % 0 mm 0.00 W/m2 CLR
01:39 -5.4 °C -10.6 °C 34428.8 hPa WNW 44.7 km/h 33.6 km/h 56 % 0 mm 0.00 W/m2 CLR
01:44 -5.4 °C -10.6 °C 34435.6 hPa NNW 44.1 km/h 28 km/h 56 % 0 mm 0.00 W/m2 CLR
01:49 -5.7 °C -10.7 °C 34435.6 hPa NW 47.6 km/h 26.2 km/h 57 % 0 mm 0.00 W/m2 CLR
01:54 -5.7 °C -10.7 °C 34439 hPa WNW 44.7 km/h 31.4 km/h 57 % 0 mm 0.00 W/m2 CLR
01:59 -5.7 °C -10.7 °C 34439 hPa NNW 38.8 km/h 31.1 km/h 57 % 0 mm 0.00 W/m2 CLR
02:04 -5.7 °C -10.7 °C 34439 hPa WNW 32.8 km/h 28 km/h 57 % 0 mm 0.00 W/m2 CLR
02:09 -5.7 °C -10.7 °C 34442.4 hPa NW 35.7 km/h 31.1 km/h 57 % 0 mm 0.00 W/m2 CLR
02:14 -5.7 °C -10.5 °C 34442.4 hPa NW 41.7 km/h 33.2 km/h 58 % 0 mm 0.00 W/m2 CLR
02:19 -5.7 °C -10.5 °C 34442.4 hPa NW 36.2 km/h 30.6 km/h 58 % 0 mm 0.00 W/m2 CLR
02:24 -5.7 °C -10.5 °C 34442.4 hPa NW 50.7 km/h 43 km/h 58 % 0 mm 0.00 W/m2 CLR
02:29 -5.7 °C -10.5 °C 34439 hPa NW 47.6 km/h 38.8 km/h 58 % 0 mm 0.00 W/m2 CLR
02:34 -5.7 °C -10.4 °C 34439 hPa WNW 33.6 km/h 24.3 km/h 59 % 0 mm 0.00 W/m2 CLR
02:39 -5.7 °C -10.4 °C 34442.4 hPa NW 53.6 km/h 34.8 km/h 59 % 0 mm 0.00 W/m2 CLR
02:44 -5.7 °C -10.4 °C 34439 hPa NW 59.5 km/h 29.8 km/h 59 % 0 mm 0.00 W/m2 CLR
02:49 -5.7 °C -10.4 °C 34442.4 hPa NW 50.7 km/h 31.5 km/h 59 % 0 mm 0.00 W/m2 CLR
02:54 -5.7 °C -10.4 °C 34439 hPa NW 65.5 km/h 34.9 km/h 59 % 0 mm 0.00 W/m2 CLR
02:59 -5.7 °C -10.4 °C 34439 hPa WNW 56.6 km/h 39.4 km/h 59 % 0 mm 0.00 W/m2 CLR
03:04 -5.7 °C -10.4 °C 34442.4 hPa NW 47.6 km/h 26.7 km/h 59 % 0 mm 0.00 W/m2 CLR
03:09 -5.7 °C -10.2 °C 34452.6 hPa WNW 47.6 km/h 30.7 km/h 60 % 0 mm 0.00 W/m2 CLR
03:14 -5.7 °C -10.2 °C 34452.6 hPa WNW 47.6 km/h 29 km/h 60 % 0 mm 0.00 W/m2 CLR
03:19 -6.1 °C -10.5 °C 34459.3 hPa West 26.9 km/h 27.5 km/h 60 % 0 mm 0.00 W/m2 CLR
03:24 -6.1 °C -10.5 °C 34462.7 hPa WNW 35.7 km/h 23.3 km/h 60 % 0 mm 0.00 W/m2 CLR
03:29 -6.1 °C -10.5 °C 34466.1 hPa West 23.8 km/h 11.6 km/h 60 % 0 mm 0.00 W/m2 CLR
03:34 -6.1 °C -10.5 °C 34466.1 hPa NW 41.7 km/h 15.6 km/h 60 % 0 mm 0.00 W/m2 CLR
03:39 -6.1 °C -10.4 °C 34462.7 hPa West 23.8 km/h 2.6 km/h 61 % 0 mm 0.00 W/m2 CLR
03:44 -6.1 °C -10.4 °C 34466.1 hPa WNW 20.9 km/h 17.1 km/h 61 % 0 mm 0.00 W/m2 CLR
03:49 -6.1 °C -10.4 °C 34462.7 hPa NW 25.9 km/h 24.6 km/h 61 % 0 mm 0.00 W/m2 CLR
03:54 -6.1 °C -10.4 °C 34459.3 hPa NW 29.8 km/h 28 km/h 61 % 0 mm 0.00 W/m2 CLR
03:59 -6.1 °C -10.2 °C 34459.3 hPa NW 32.8 km/h 25.6 km/h 62 % 0 mm 0.00 W/m2 CLR
04:04 -6.3 °C -10.6 °C 34459.3 hPa WNW 41.7 km/h 26.7 km/h 62 % 0 mm 0.00 W/m2 CLR
04:09 -6.3 °C -10.6 °C 34459.3 hPa NW 28.5 km/h 19.6 km/h 62 % 0 mm 0.00 W/m2 CLR
04:14 -6.3 °C -10.6 °C 34462.7 hPa WNW 41.7 km/h 24.3 km/h 62 % 0 mm 0.00 W/m2 CLR
04:19 -6.3 °C -10.4 °C 34466.1 hPa NW 33.6 km/h 20.8 km/h 63 % 0 mm 0.00 W/m2 CLR
04:24 -6.3 °C -10.4 °C 34469.5 hPa WNW 36.2 km/h 26.4 km/h 63 % 0 mm 0.00 W/m2 CLR
04:29 -6.3 °C -10.4 °C 34469.5 hPa NW 38.8 km/h 25.6 km/h 63 % 0 mm 0.00 W/m2 CLR
04:34 -6.3 °C -10.3 °C 34466.1 hPa NW 44.7 km/h 31.1 km/h 64 % 0 mm 0.00 W/m2 CLR
04:39 -6.3 °C -10.3 °C 34466.1 hPa NW 50.7 km/h 32.3 km/h 64 % 0 mm 0.00 W/m2 CLR
04:44 -6.7 °C -10.6 °C 34462.7 hPa WNW 35.7 km/h 28.5 km/h 64 % 0 mm 0.00 W/m2 CLR
04:49 -6.7 °C -10.6 °C 34459.3 hPa NW 33.6 km/h 33.6 km/h 64 % 0 mm 0.00 W/m2 CLR
04:54 -6.7 °C -10.4 °C 34459.3 hPa NW 44.1 km/h 36.5 km/h 65 % 0 mm 0.00 W/m2 CLR
04:59 -6.7 °C -10.4 °C 34455.9 hPa NW 38.8 km/h 29.5 km/h 65 % 0 mm 0.00 W/m2 CLR
05:04 -6.7 °C -10.3 °C 34452.6 hPa WNW 47.6 km/h 23.5 km/h 66 % 0 mm 0.00 W/m2 CLR
05:09 -6.7 °C -10.3 °C 34455.9 hPa WNW 47.6 km/h 28.2 km/h 66 % 0 mm 0.00 W/m2 CLR
05:14 -6.7 °C -10.3 °C 34455.9 hPa WNW 32.8 km/h 30.6 km/h 66 % 0 mm 0.00 W/m2 CLR
05:19 -6.7 °C -10.2 °C 34455.9 hPa NW 47.6 km/h 40.1 km/h 67 % 0 mm 0.00 W/m2 CLR
05:24 -7 °C -10.4 °C 34459.3 hPa WNW 44.7 km/h 30.6 km/h 67 % 0 mm 0.00 W/m2 CLR
05:29 -7 °C -10.4 °C 34462.7 hPa NW 38.8 km/h 28.8 km/h 67 % 0 mm 0.00 W/m2 CLR
05:34 -7 °C -10.4 °C 34462.7 hPa NW 50.7 km/h 36 km/h 67 % 0 mm 0.00 W/m2 CLR
05:39 -7 °C -10.3 °C 34466.1 hPa NW 32.8 km/h 25.4 km/h 68 % 0 mm 0.00 W/m2 CLR
05:44 -7 °C -10.3 °C 34466.1 hPa WNW 31.1 km/h 22 km/h 68 % 0 mm 0.00 W/m2 CLR
05:49 -7 °C -10.3 °C 34472.9 hPa NW 32.8 km/h 21.2 km/h 68 % 0 mm 0.00 W/m2 CLR
05:54 -7 °C -10.3 °C 34476.3 hPa WNW 35.7 km/h 30.3 km/h 68 % 0 mm 0.00 W/m2 CLR
05:59 -7 °C -10.3 °C 34476.3 hPa NW 26.9 km/h 11.1 km/h 68 % 0 mm 0.00 W/m2 CLR
06:04 -7 °C -10.3 °C 34476.3 hPa WNW 11.9 km/h 14.8 km/h 68 % 0 mm 0.00 W/m2 CLR
06:09 -7.3 °C -10.7 °C 34479.6 hPa West 12.9 km/h 0.5 km/h 68 % 0 mm 0.00 W/m2 CLR
06:14 -7.3 °C -10.5 °C 34479.6 hPa NW 17.9 km/h 11.9 km/h 69 % 0 mm 0.00 W/m2 CLR
06:19 -7.3 °C -10.5 °C 34483 hPa West 29.8 km/h 18.7 km/h 69 % 0 mm 0.00 W/m2 CLR
06:24 -7.3 °C -10.5 °C 34483 hPa West 35.7 km/h 21.6 km/h 69 % 0 mm 0.00 W/m2 CLR
06:29 -7.3 °C -10.5 °C 34486.4 hPa WNW 35.7 km/h 14.8 km/h 69 % 0 mm 0.00 W/m2 CLR
06:34 -7.3 °C -10.5 °C 34489.8 hPa WNW 23.8 km/h 14.5 km/h 69 % 0 mm 0.00 W/m2 CLR
06:39 -7.3 °C -10.4 °C 34489.8 hPa NW 33.6 km/h 15 km/h 70 % 0 mm 0.00 W/m2 CLR
06:44 -7.3 °C -10.4 °C 34493.2 hPa WNW 15 km/h 15 km/h 70 % 0 mm 0.00 W/m2 CLR
06:49 -7.3 °C -10.4 °C 34496.6 hPa WNW 20.8 km/h 12.2 km/h 70 % 0 mm 0.00 W/m2 CLR
06:54 -7.3 °C -10.4 °C 34496.6 hPa NW 32.8 km/h 23 km/h 70 % 0 mm 0.00 W/m2 CLR
06:59 -7.3 °C -10.4 °C 34496.6 hPa WNW 23.8 km/h 20.3 km/h 70 % 0 mm 0.00 W/m2 CLR
07:04 -7.3 °C -10.4 °C 34500 hPa WNW 32.8 km/h 21.6 km/h 70 % 0 mm 0.00 W/m2 OVC
07:06 -7.3 °C -10.4 °C 34500 hPa WNW 32.8 km/h 23.5 km/h 70 % 0 mm 0.00 W/m2 OVC
07:13 -7.3 °C -10.4 °C 34506.7 hPa WNW 26.9 km/h 20.4 km/h 70 % 0 mm 7.00 W/m2 BKN
07:19 -7.3 °C -10.4 °C 34510.1 hPa NW 41.7 km/h 28.2 km/h 70 % 0 mm 11.00 W/m2 BKN
07:24 -7.3 °C -10.4 °C 34510.1 hPa WNW 29.8 km/h 23.3 km/h 70 % 0 mm 14.00 W/m2 BKN
07:29 -7.3 °C -10.4 °C 34510.1 hPa NW 29.8 km/h 28 km/h 70 % 0 mm 18.00 W/m2 BKN
07:34 -7.3 °C -10.3 °C 34513.5 hPa WNW 20.9 km/h 5.6 km/h 71 % 0 mm 21.00 W/m2 BKN
07:39 -7.3 °C -10.3 °C 34513.5 hPa WNW 29.8 km/h 26.4 km/h 71 % 0 mm 26.00 W/m2 BKN
07:44 -7.3 °C -10.3 °C 34516.9 hPa NW 29.8 km/h 15.3 km/h 71 % 0 mm 35.00 W/m2 BKN
07:49 -7.3 °C -10.3 °C 34516.9 hPa WNW 35.7 km/h 25.9 km/h 71 % 0 mm 42.00 W/m2 BKN
07:54 -7.3 °C -10.3 °C 34516.9 hPa West 41.4 km/h 29.3 km/h 71 % 0 mm 49.00 W/m2 SCT
07:59 -7.3 °C -10.3 °C 34520.3 hPa WNW 31.1 km/h 26.9 km/h 71 % 0 mm 62.00 W/m2 SCT
08:04 -7.3 °C -10.3 °C 34520.3 hPa WNW 15.6 km/h 17.1 km/h 71 % 0 mm 79.00 W/m2 FEW
08:09 -7.3 °C -10.3 °C 34516.9 hPa NW 26.9 km/h 25.4 km/h 71 % 0 mm 91.00 W/m2 FEW
08:14 -7 °C -10.1 °C 34520.3 hPa WNW 29.8 km/h 20 km/h 70 % 0 mm 105.00 W/m2 CLR
08:19 -7 °C -10.1 °C 34520.3 hPa NW 35.7 km/h 16.9 km/h 70 % 0 mm 127.00 W/m2 CLR
08:24 -7 °C -10.2 °C 34520.3 hPa WNW 29.8 km/h 20.9 km/h 69 % 0 mm 146.00 W/m2 CLR
08:29 -7 °C -10.2 °C 34520.3 hPa WNW 32.8 km/h 23.3 km/h 69 % 0 mm 163.00 W/m2 CLR
08:34 -6.7 °C -9.9 °C 34520.3 hPa NW 41.4 km/h 27.5 km/h 69 % 0 mm 181.00 W/m2 CLR
08:39 -6.7 °C -10.1 °C 34523.7 hPa WNW 38.8 km/h 30.1 km/h 68 % 0 mm 197.00 W/m2 CLR
08:44 -6.7 °C -10.1 °C 34523.7 hPa NW 29.8 km/h 27.2 km/h 68 % 0 mm 216.00 W/m2 CLR
08:49 -6.7 °C -10.1 °C 34530.4 hPa WNW 44.7 km/h 20.3 km/h 68 % 0 mm 230.00 W/m2 CLR
08:54 -6.3 °C -9.9 °C 34530.4 hPa NW 38.8 km/h 32.2 km/h 67 % 0 mm 244.00 W/m2 CLR
08:59 -6.3 °C -9.9 °C 34530.4 hPa NNW 38.8 km/h 30.1 km/h 67 % 0 mm 260.00 W/m2 CLR
09:04 -6.3 °C -10 °C 34530.4 hPa NNW 38.8 km/h 34.4 km/h 66 % 0 mm 278.00 W/m2 CLR
09:09 -6.3 °C -10 °C 34530.4 hPa NW 29.8 km/h 19.2 km/h 66 % 0 mm 297.00 W/m2 CLR
09:14 -6.3 °C -10 °C 34533.8 hPa NW 44.1 km/h 29.3 km/h 66 % 0 mm 313.00 W/m2 CLR
09:19 -6.3 °C -10.2 °C 34533.8 hPa NNW 44.7 km/h 29 km/h 65 % 0 mm 327.00 W/m2 CLR
09:24 -6.1 °C -9.8 °C 34533.8 hPa NNW 35.7 km/h 27.5 km/h 65 % 0 mm 329.00 W/m2 CLR
09:29 -6.1 °C -9.9 °C 34530.4 hPa NNW 41.7 km/h 29.8 km/h 64 % 0 mm 90.00 W/m2 CLR
09:34 -6.1 °C -9.9 °C 34530.4 hPa NNW 38.8 km/h 31.1 km/h 64 % 0 mm 381.00 W/m2 CLR
09:39 -6.1 °C -9.9 °C 34530.4 hPa NNW 47.6 km/h 42.5 km/h 64 % 0 mm 399.00 W/m2 CLR
09:44 -5.7 °C -9.8 °C 34537.2 hPa NW 41.7 km/h 24.8 km/h 63 % 0 mm 427.00 W/m2 CLR
09:49 -5.7 °C -9.8 °C 34533.8 hPa NNW 56.6 km/h 41.2 km/h 63 % 0 mm 431.00 W/m2 CLR
09:54 -5.7 °C -9.9 °C 34533.8 hPa NW 47.6 km/h 31.4 km/h 62 % 0 mm 464.00 W/m2 CLR
09:59 -5.7 °C -9.8 °C 34533.8 hPa NNW 53.6 km/h 32.3 km/h 63 % 0 mm 469.00 W/m2 CLR
10:04 -5.4 °C -9.7 °C 34530.4 hPa NW 38.8 km/h 35.2 km/h 62 % 0 mm 478.00 W/m2 CLR
10:09 -5.4 °C -9.7 °C 34530.4 hPa North 50.7 km/h 41.4 km/h 62 % 0 mm 487.00 W/m2 CLR
10:14 -5.4 °C -9.8 °C 34533.8 hPa NNW 47.6 km/h 36 km/h 61 % 0 mm 506.00 W/m2 CLR
10:19 -5.1 °C -9.7 °C 34533.8 hPa North 57 km/h 42.2 km/h 60 % 0 mm 519.00 W/m2 CLR
10:24 -5.1 °C -9.8 °C 34530.4 hPa NNW 50.7 km/h 42.5 km/h 59 % 0 mm 540.00 W/m2 CLR
10:29 -5.1 °C -9.8 °C 34530.4 hPa NW 44.7 km/h 35.4 km/h 59 % 0 mm 563.00 W/m2 CLR
10:34 -5.1 °C -9.9 °C 34530.4 hPa NNW 44.7 km/h 30.6 km/h 58 % 0 mm 566.00 W/m2 CLR
10:39 -4.8 °C -9.7 °C 34530.4 hPa North 38.8 km/h 25.1 km/h 58 % 0 mm 585.00 W/m2 CLR
10:44 -4.8 °C -9.8 °C 34533.8 hPa NW 50.7 km/h 27.5 km/h 57 % 0 mm 638.00 W/m2 CLR
10:49 -4.8 °C -9.9 °C 34537.2 hPa NW 44.7 km/h 39.6 km/h 56 % 0 mm 431.00 W/m2 CLR
10:54 -5.1 °C -10.1 °C 34540.6 hPa North 44.7 km/h 30.3 km/h 57 % 0 mm 323.00 W/m2 CLR
10:59 -5.1 °C -10.1 °C 34537.2 hPa NW 65.5 km/h 37.3 km/h 57 % 0 mm 789.00 W/m2 CLR
11:04 -4.8 °C -9.9 °C 34533.8 hPa NW 44.7 km/h 35.2 km/h 56 % 0 mm 645.00 W/m2 CLR
11:09 -4.8 °C -10.3 °C 34537.2 hPa North 49.2 km/h 40.1 km/h 54 % 0 mm 664.00 W/m2 CLR
Lo Temps de Massalio
Compliments of Weather Underground - 768 kb